sensor_id;sensor_type;location;lat;lon;timestamp;P1;durP1;ratioP1;P2;durP2;ratioP2
10509;SDS011;5303;53.266;10.410;2023-05-10T00:00:09;5.23;;;3.60;;
10509;SDS011;5303;53.266;10.410;2023-05-10T00:02:34;6.27;;;3.80;;
10509;SDS011;5303;53.266;10.410;2023-05-10T00:05:00;6.47;;;3.90;;
10509;SDS011;5303;53.266;10.410;2023-05-10T00:07:26;4.50;;;3.40;;
10509;SDS011;5303;53.266;10.410;2023-05-10T00:09:51;10.60;;;4.40;;
10509;SDS011;5303;53.266;10.410;2023-05-10T00:12:16;6.10;;;3.77;;
10509;SDS011;5303;53.266;10.410;2023-05-10T00:14:41;6.60;;;3.87;;
10509;SDS011;5303;53.266;10.410;2023-05-10T00:17:07;5.57;;;3.97;;
10509;SDS011;5303;53.266;10.410;2023-05-10T00:19:32;7.70;;;4.03;;
10509;SDS011;5303;53.266;10.410;2023-05-10T00:21:57;5.50;;;3.73;;
10509;SDS011;5303;53.266;10.410;2023-05-10T00:24:23;5.23;;;3.90;;
10509;SDS011;5303;53.266;10.410;2023-05-10T00:26:50;6.23;;;3.80;;
10509;SDS011;5303;53.266;10.410;2023-05-10T00:29:15;3.73;;;3.33;;
10509;SDS011;5303;53.266;10.410;2023-05-10T00:31:40;4.97;;;4.17;;
10509;SDS011;5303;53.266;10.410;2023-05-10T00:34:05;4.23;;;3.70;;
10509;SDS011;5303;53.266;10.410;2023-05-10T00:36:31;5.10;;;3.60;;
10509;SDS011;5303;53.266;10.410;2023-05-10T00:38:56;4.50;;;3.70;;
10509;SDS011;5303;53.266;10.410;2023-05-10T00:41:21;4.73;;;3.83;;
10509;SDS011;5303;53.266;10.410;2023-05-10T00:43:47;4.97;;;3.90;;
10509;SDS011;5303;53.266;10.410;2023-05-10T00:46:13;7.37;;;4.30;;
10509;SDS011;5303;53.266;10.410;2023-05-10T00:48:40;6.47;;;4.20;;
10509;SDS011;5303;53.266;10.410;2023-05-10T00:51:05;4.57;;;3.97;;
10509;SDS011;5303;53.266;10.410;2023-05-10T00:53:31;4.90;;;3.57;;
10509;SDS011;5303;53.266;10.410;2023-05-10T00:55:57;5.73;;;3.60;;
10509;SDS011;5303;53.266;10.410;2023-05-10T00:58:24;5.43;;;4.00;;
10509;SDS011;5303;53.266;10.410;2023-05-10T01:00:53;5.27;;;3.90;;
10509;SDS011;5303;53.266;10.410;2023-05-10T01:03:21;6.10;;;4.30;;
10509;SDS011;5303;53.266;10.410;2023-05-10T01:05:46;5.97;;;3.70;;
10509;SDS011;5303;53.266;10.410;2023-05-10T01:08:11;4.70;;;3.87;;
10509;SDS011;5303;53.266;10.410;2023-05-10T01:10:37;5.80;;;3.80;;
10509;SDS011;5303;53.266;10.410;2023-05-10T01:13:02;4.63;;;4.00;;
10509;SDS011;5303;53.266;10.410;2023-05-10T01:15:28;6.00;;;3.83;;
10509;SDS011;5303;53.266;10.410;2023-05-10T01:17:54;5.90;;;3.90;;
10509;SDS011;5303;53.266;10.410;2023-05-10T01:20:21;8.30;;;3.70;;
10509;SDS011;5303;53.266;10.410;2023-05-10T01:36:19;6.10;;;3.93;;
10509;SDS011;5303;53.266;10.410;2023-05-10T01:41:40;4.97;;;3.60;;
10509;SDS011;5303;53.266;10.410;2023-05-10T01:44:16;5.03;;;4.33;;
10509;SDS011;5303;53.266;10.410;2023-05-10T01:46:52;5.20;;;4.07;;
10509;SDS011;5303;53.266;10.410;2023-05-10T01:49:25;5.10;;;4.03;;
10509;SDS011;5303;53.266;10.410;2023-05-10T01:51:53;4.73;;;4.00;;
10509;SDS011;5303;53.266;10.410;2023-05-10T01:54:24;5.30;;;4.03;;
10509;SDS011;5303;53.266;10.410;2023-05-10T01:56:50;6.50;;;3.93;;
10509;SDS011;5303;53.266;10.410;2023-05-10T01:59:20;5.13;;;4.20;;
10509;SDS011;5303;53.266;10.410;2023-05-10T02:01:47;4.77;;;4.13;;
10509;SDS011;5303;53.266;10.410;2023-05-10T02:04:15;9.27;;;4.50;;
10509;SDS011;5303;53.266;10.410;2023-05-10T02:06:42;4.67;;;3.90;;
10509;SDS011;5303;53.266;10.410;2023-05-10T02:09:09;4.87;;;3.90;;
10509;SDS011;5303;53.266;10.410;2023-05-10T02:11:37;6.57;;;3.67;;
10509;SDS011;5303;53.266;10.410;2023-05-10T02:14:05;6.27;;;4.27;;
10509;SDS011;5303;53.266;10.410;2023-05-10T02:16:32;5.70;;;4.13;;
10509;SDS011;5303;53.266;10.410;2023-05-10T02:18:59;4.87;;;3.97;;
10509;SDS011;5303;53.266;10.410;2023-05-10T02:21:27;4.20;;;3.80;;
10509;SDS011;5303;53.266;10.410;2023-05-10T02:23:53;7.13;;;4.10;;
10509;SDS011;5303;53.266;10.410;2023-05-10T02:26:20;5.50;;;4.17;;
10509;SDS011;5303;53.266;10.410;2023-05-10T02:28:48;5.13;;;3.70;;
10509;SDS011;5303;53.266;10.410;2023-05-10T02:31:14;4.97;;;4.07;;
10509;SDS011;5303;53.266;10.410;2023-05-10T02:33:40;5.73;;;3.93;;
10509;SDS011;5303;53.266;10.410;2023-05-10T02:36:08;4.77;;;4.03;;
10509;SDS011;5303;53.266;10.410;2023-05-10T02:38:34;4.33;;;3.93;;
10509;SDS011;5303;53.266;10.410;2023-05-10T02:41:01;7.00;;;3.97;;
10509;SDS011;5303;53.266;10.410;2023-05-10T02:43:27;6.67;;;4.10;;
10509;SDS011;5303;53.266;10.410;2023-05-10T02:45:57;5.13;;;3.87;;
10509;SDS011;5303;53.266;10.410;2023-05-10T02:48:22;4.87;;;3.90;;
10509;SDS011;5303;53.266;10.410;2023-05-10T02:50:47;7.23;;;4.03;;
10509;SDS011;5303;53.266;10.410;2023-05-10T02:53:23;4.10;;;3.70;;
10509;SDS011;5303;53.266;10.410;2023-05-10T02:55:57;5.67;;;4.03;;
10509;SDS011;5303;53.266;10.410;2023-05-10T02:58:25;7.60;;;4.20;;
10509;SDS011;5303;53.266;10.410;2023-05-10T03:00:51;7.03;;;4.70;;
10509;SDS011;5303;53.266;10.410;2023-05-10T03:03:17;6.57;;;3.90;;
10509;SDS011;5303;53.266;10.410;2023-05-10T03:05:42;4.57;;;4.03;;
10509;SDS011;5303;53.266;10.410;2023-05-10T03:08:07;7.13;;;4.10;;
10509;SDS011;5303;53.266;10.410;2023-05-10T03:10:33;5.23;;;4.30;;
10509;SDS011;5303;53.266;10.410;2023-05-10T03:13:09;6.37;;;4.33;;
10509;SDS011;5303;53.266;10.410;2023-05-10T03:15:49;5.30;;;4.13;;
10509;SDS011;5303;53.266;10.410;2023-05-10T03:18:26;5.93;;;3.87;;
10509;SDS011;5303;53.266;10.410;2023-05-10T03:21:02;4.60;;;4.07;;
10509;SDS011;5303;53.266;10.410;2023-05-10T03:23:35;7.07;;;4.33;;
10509;SDS011;5303;53.266;10.410;2023-05-10T03:26:05;8.57;;;4.47;;
10509;SDS011;5303;53.266;10.410;2023-05-10T03:28:32;4.50;;;4.10;;
10509;SDS011;5303;53.266;10.410;2023-05-10T03:30:59;6.13;;;4.20;;
10509;SDS011;5303;53.266;10.410;2023-05-10T03:33:25;4.80;;;3.87;;
10509;SDS011;5303;53.266;10.410;2023-05-10T03:35:50;6.50;;;4.60;;
10509;SDS011;5303;53.266;10.410;2023-05-10T03:38:16;4.20;;;3.80;;
10509;SDS011;5303;53.266;10.410;2023-05-10T03:40:41;6.53;;;4.20;;
10509;SDS011;5303;53.266;10.410;2023-05-10T03:43:06;5.97;;;4.00;;
10509;SDS011;5303;53.266;10.410;2023-05-10T03:45:31;5.40;;;4.37;;
10509;SDS011;5303;53.266;10.410;2023-05-10T03:47:57;4.93;;;4.27;;
10509;SDS011;5303;53.266;10.410;2023-05-10T03:50:23;6.93;;;4.60;;
10509;SDS011;5303;53.266;10.410;2023-05-10T03:52:48;6.20;;;4.43;;
10509;SDS011;5303;53.266;10.410;2023-05-10T03:55:13;5.87;;;4.30;;
10509;SDS011;5303;53.266;10.410;2023-05-10T03:57:39;5.07;;;4.10;;
10509;SDS011;5303;53.266;10.410;2023-05-10T04:00:04;4.90;;;4.10;;
10509;SDS011;5303;53.266;10.410;2023-05-10T04:02:30;4.77;;;4.23;;
10509;SDS011;5303;53.266;10.410;2023-05-10T04:04:55;4.20;;;3.80;;
10509;SDS011;5303;53.266;10.410;2023-05-10T04:07:21;4.53;;;4.00;;
10509;SDS011;5303;53.266;10.410;2023-05-10T04:09:46;6.70;;;4.70;;
10509;SDS011;5303;53.266;10.410;2023-05-10T04:12:12;4.73;;;4.23;;
10509;SDS011;5303;53.266;10.410;2023-05-10T04:14:37;6.20;;;3.90;;
10509;SDS011;5303;53.266;10.410;2023-05-10T04:17:02;5.30;;;4.03;;
10509;SDS011;5303;53.266;10.410;2023-05-10T04:19:31;4.53;;;4.13;;
10509;SDS011;5303;53.266;10.410;2023-05-10T04:21:56;5.77;;;4.10;;
10509;SDS011;5303;53.266;10.410;2023-05-10T04:24:22;5.83;;;3.80;;
10509;SDS011;5303;53.266;10.410;2023-05-10T04:26:47;4.83;;;3.70;;
10509;SDS011;5303;53.266;10.410;2023-05-10T04:29:13;4.40;;;4.00;;
10509;SDS011;5303;53.266;10.410;2023-05-10T04:31:38;6.10;;;4.27;;
10509;SDS011;5303;53.266;10.410;2023-05-10T04:34:03;5.07;;;3.70;;
10509;SDS011;5303;53.266;10.410;2023-05-10T04:36:29;4.63;;;3.93;;
10509;SDS011;5303;53.266;10.410;2023-05-10T04:38:54;4.50;;;4.10;;
10509;SDS011;5303;53.266;10.410;2023-05-10T04:41:19;5.20;;;4.07;;
10509;SDS011;5303;53.266;10.410;2023-05-10T04:43:45;4.83;;;3.93;;
10509;SDS011;5303;53.266;10.410;2023-05-10T04:46:11;4.43;;;3.90;;
10509;SDS011;5303;53.266;10.410;2023-05-10T04:48:36;4.73;;;4.33;;
10509;SDS011;5303;53.266;10.410;2023-05-10T04:51:01;5.20;;;4.03;;
10509;SDS011;5303;53.266;10.410;2023-05-10T04:53:28;6.57;;;4.13;;
10509;SDS011;5303;53.266;10.410;2023-05-10T04:55:54;6.43;;;4.10;;
10509;SDS011;5303;53.266;10.410;2023-05-10T04:58:19;9.77;;;4.70;;
10509;SDS011;5303;53.266;10.410;2023-05-10T05:00:44;6.47;;;4.00;;
10509;SDS011;5303;53.266;10.410;2023-05-10T05:03:09;6.57;;;4.10;;
10509;SDS011;5303;53.266;10.410;2023-05-10T05:05:35;5.30;;;4.00;;
10509;SDS011;5303;53.266;10.410;2023-05-10T05:08:00;5.30;;;4.30;;
10509;SDS011;5303;53.266;10.410;2023-05-10T05:10:26;5.17;;;3.80;;
10509;SDS011;5303;53.266;10.410;2023-05-10T05:12:51;4.67;;;4.13;;
10509;SDS011;5303;53.266;10.410;2023-05-10T05:15:16;6.17;;;3.90;;
10509;SDS011;5303;53.266;10.410;2023-05-10T05:17:42;4.27;;;3.77;;
10509;SDS011;5303;53.266;10.410;2023-05-10T05:20:10;4.70;;;4.17;;
10509;SDS011;5303;53.266;10.410;2023-05-10T05:22:36;4.80;;;4.27;;
10509;SDS011;5303;53.266;10.410;2023-05-10T05:25:02;4.93;;;3.80;;
10509;SDS011;5303;53.266;10.410;2023-05-10T05:27:28;5.87;;;4.40;;
10509;SDS011;5303;53.266;10.410;2023-05-10T05:29:53;4.70;;;3.70;;
10509;SDS011;5303;53.266;10.410;2023-05-10T05:32:19;8.33;;;4.30;;
10509;SDS011;5303;53.266;10.410;2023-05-10T05:34:45;5.13;;;4.20;;
10509;SDS011;5303;53.266;10.410;2023-05-10T05:37:18;5.43;;;3.87;;
10509;SDS011;5303;53.266;10.410;2023-05-10T05:39:44;4.87;;;4.17;;
10509;SDS011;5303;53.266;10.410;2023-05-10T05:42:10;5.90;;;4.07;;
10509;SDS011;5303;53.266;10.410;2023-05-10T05:44:37;6.97;;;4.40;;
10509;SDS011;5303;53.266;10.410;2023-05-10T05:47:03;4.33;;;3.93;;
10509;SDS011;5303;53.266;10.410;2023-05-10T05:49:28;4.80;;;4.00;;
10509;SDS011;5303;53.266;10.410;2023-05-10T05:51:53;4.77;;;4.03;;
10509;SDS011;5303;53.266;10.410;2023-05-10T05:54:19;5.57;;;4.50;;
10509;SDS011;5303;53.266;10.410;2023-05-10T05:56:45;5.37;;;4.03;;
10509;SDS011;5303;53.266;10.410;2023-05-10T05:59:10;6.33;;;4.03;;
10509;SDS011;5303;53.266;10.410;2023-05-10T06:01:36;4.53;;;3.80;;
10509;SDS011;5303;53.266;10.410;2023-05-10T06:04:02;4.93;;;4.50;;
10509;SDS011;5303;53.266;10.410;2023-05-10T06:06:27;4.40;;;3.73;;
10509;SDS011;5303;53.266;10.410;2023-05-10T06:08:52;6.13;;;4.30;;
10509;SDS011;5303;53.266;10.410;2023-05-10T06:11:18;4.53;;;4.10;;
10509;SDS011;5303;53.266;10.410;2023-05-10T06:13:43;7.23;;;3.80;;
10509;SDS011;5303;53.266;10.410;2023-05-10T06:16:09;4.30;;;3.90;;
10509;SDS011;5303;53.266;10.410;2023-05-10T06:18:34;5.13;;;3.93;;
10509;SDS011;5303;53.266;10.410;2023-05-10T06:21:00;6.17;;;4.20;;
10509;SDS011;5303;53.266;10.410;2023-05-10T06:23:25;4.30;;;3.90;;
10509;SDS011;5303;53.266;10.410;2023-05-10T06:25:51;6.73;;;4.47;;
10509;SDS011;5303;53.266;10.410;2023-05-10T06:28:16;6.67;;;3.80;;
10509;SDS011;5303;53.266;10.410;2023-05-10T06:30:42;5.03;;;4.03;;
10509;SDS011;5303;53.266;10.410;2023-05-10T06:33:07;4.73;;;4.13;;
10509;SDS011;5303;53.266;10.410;2023-05-10T06:35:32;6.00;;;4.57;;
10509;SDS011;5303;53.266;10.410;2023-05-10T06:37:58;5.30;;;3.87;;
10509;SDS011;5303;53.266;10.410;2023-05-10T06:40:23;4.07;;;3.63;;
10509;SDS011;5303;53.266;10.410;2023-05-10T06:42:49;4.40;;;4.00;;
10509;SDS011;5303;53.266;10.410;2023-05-10T06:45:14;4.83;;;4.03;;
10509;SDS011;5303;53.266;10.410;2023-05-10T06:47:40;5.57;;;4.13;;
10509;SDS011;5303;53.266;10.410;2023-05-10T06:50:07;4.50;;;4.10;;
10509;SDS011;5303;53.266;10.410;2023-05-10T06:52:33;6.47;;;4.50;;
10509;SDS011;5303;53.266;10.410;2023-05-10T06:54:58;5.87;;;3.97;;
10509;SDS011;5303;53.266;10.410;2023-05-10T06:57:24;5.73;;;3.80;;
10509;SDS011;5303;53.266;10.410;2023-05-10T06:59:49;5.63;;;4.20;;
10509;SDS011;5303;53.266;10.410;2023-05-10T07:02:15;5.17;;;3.87;;
10509;SDS011;5303;53.266;10.410;2023-05-10T07:04:40;6.87;;;4.17;;
10509;SDS011;5303;53.266;10.410;2023-05-10T07:07:05;5.63;;;4.20;;
10509;SDS011;5303;53.266;10.410;2023-05-10T07:09:30;4.30;;;3.67;;
10509;SDS011;5303;53.266;10.410;2023-05-10T07:11:56;5.60;;;3.90;;
10509;SDS011;5303;53.266;10.410;2023-05-10T07:14:22;5.07;;;4.00;;
10509;SDS011;5303;53.266;10.410;2023-05-10T07:16:48;6.97;;;4.07;;
10509;SDS011;5303;53.266;10.410;2023-05-10T07:19:13;4.27;;;3.87;;
10509;SDS011;5303;53.266;10.410;2023-05-10T07:21:38;4.67;;;4.00;;
10509;SDS011;5303;53.266;10.410;2023-05-10T07:24:05;4.97;;;3.77;;
10509;SDS011;5303;53.266;10.410;2023-05-10T07:26:30;5.30;;;4.00;;
10509;SDS011;5303;53.266;10.410;2023-05-10T07:28:56;5.53;;;3.87;;
10509;SDS011;5303;53.266;10.410;2023-05-10T07:31:21;4.40;;;3.87;;
10509;SDS011;5303;53.266;10.410;2023-05-10T07:33:46;4.97;;;3.83;;
10509;SDS011;5303;53.266;10.410;2023-05-10T07:36:12;4.80;;;4.30;;
10509;SDS011;5303;53.266;10.410;2023-05-10T07:38:37;37.23;;;8.90;;
10509;SDS011;5303;53.266;10.410;2023-05-10T07:41:03;7.37;;;4.50;;
10509;SDS011;5303;53.266;10.410;2023-05-10T07:43:28;4.60;;;3.93;;
10509;SDS011;5303;53.266;10.410;2023-05-10T07:45:53;5.00;;;3.93;;
10509;SDS011;5303;53.266;10.410;2023-05-10T07:48:18;5.67;;;4.53;;
10509;SDS011;5303;53.266;10.410;2023-05-10T07:50:44;4.88;;;4.10;;
10509;SDS011;5303;53.266;10.410;2023-05-10T07:53:09;5.10;;;3.90;;
10509;SDS011;5303;53.266;10.410;2023-05-10T07:55:34;7.33;;;4.20;;
10509;SDS011;5303;53.266;10.410;2023-05-10T07:58:00;5.87;;;4.20;;
10509;SDS011;5303;53.266;10.410;2023-05-10T08:00:26;4.00;;;3.60;;
10509;SDS011;5303;53.266;10.410;2023-05-10T08:02:51;4.17;;;3.77;;
10509;SDS011;5303;53.266;10.410;2023-05-10T08:05:16;4.67;;;3.67;;
10509;SDS011;5303;53.266;10.410;2023-05-10T08:07:42;5.90;;;5.17;;
10509;SDS011;5303;53.266;10.410;2023-05-10T08:10:08;4.37;;;3.90;;
10509;SDS011;5303;53.266;10.410;2023-05-10T08:12:34;4.83;;;4.07;;
10509;SDS011;5303;53.266;10.410;2023-05-10T08:15:00;5.37;;;4.40;;
10509;SDS011;5303;53.266;10.410;2023-05-10T08:17:25;5.30;;;4.10;;
10509;SDS011;5303;53.266;10.410;2023-05-10T08:19:50;6.90;;;3.87;;
10509;SDS011;5303;53.266;10.410;2023-05-10T08:22:16;4.37;;;3.97;;
10509;SDS011;5303;53.266;10.410;2023-05-10T08:24:41;5.10;;;4.20;;
10509;SDS011;5303;53.266;10.410;2023-05-10T08:27:07;7.10;;;4.13;;
10509;SDS011;5303;53.266;10.410;2023-05-10T08:29:32;5.50;;;4.23;;
10509;SDS011;5303;53.266;10.410;2023-05-10T08:31:58;5.37;;;4.10;;
10509;SDS011;5303;53.266;10.410;2023-05-10T08:34:23;4.93;;;4.10;;
10509;SDS011;5303;53.266;10.410;2023-05-10T08:36:48;9.00;;;4.50;;
10509;SDS011;5303;53.266;10.410;2023-05-10T08:39:14;4.70;;;4.23;;
10509;SDS011;5303;53.266;10.410;2023-05-10T08:41:39;5.60;;;4.40;;
10509;SDS011;5303;53.266;10.410;2023-05-10T08:44:05;5.93;;;4.20;;
10509;SDS011;5303;53.266;10.410;2023-05-10T08:46:33;5.93;;;4.40;;
10509;SDS011;5303;53.266;10.410;2023-05-10T08:49:00;4.93;;;4.17;;
10509;SDS011;5303;53.266;10.410;2023-05-10T08:51:27;5.17;;;4.00;;
10509;SDS011;5303;53.266;10.410;2023-05-10T08:53:57;5.10;;;4.00;;
10509;SDS011;5303;53.266;10.410;2023-05-10T08:56:22;5.23;;;4.40;;
10509;SDS011;5303;53.266;10.410;2023-05-10T08:58:48;4.70;;;4.20;;
10509;SDS011;5303;53.266;10.410;2023-05-10T09:01:15;6.40;;;4.40;;
10509;SDS011;5303;53.266;10.410;2023-05-10T09:03:42;5.93;;;4.50;;
10509;SDS011;5303;53.266;10.410;2023-05-10T09:06:08;5.17;;;4.40;;
10509;SDS011;5303;53.266;10.410;2023-05-10T09:08:33;6.07;;;4.30;;
10509;SDS011;5303;53.266;10.410;2023-05-10T09:10:59;6.20;;;4.33;;
10509;SDS011;5303;53.266;10.410;2023-05-10T09:13:26;9.93;;;5.57;;
10509;SDS011;5303;53.266;10.410;2023-05-10T09:15:51;6.63;;;4.63;;
10509;SDS011;5303;53.266;10.410;2023-05-10T09:18:17;6.63;;;5.10;;
10509;SDS011;5303;53.266;10.410;2023-05-10T09:20:43;6.70;;;4.90;;
10509;SDS011;5303;53.266;10.410;2023-05-10T09:23:08;5.03;;;4.50;;
10509;SDS011;5303;53.266;10.410;2023-05-10T09:25:34;5.80;;;4.17;;
10509;SDS011;5303;53.266;10.410;2023-05-10T09:27:59;6.90;;;4.90;;
10509;SDS011;5303;53.266;10.410;2023-05-10T09:30:26;5.30;;;4.80;;
10509;SDS011;5303;53.266;10.410;2023-05-10T09:32:52;5.60;;;4.60;;
10509;SDS011;5303;53.266;10.410;2023-05-10T09:35:19;6.03;;;5.13;;
10509;SDS011;5303;53.266;10.410;2023-05-10T09:37:48;6.40;;;5.00;;
10509;SDS011;5303;53.266;10.410;2023-05-10T09:40:18;4.83;;;4.37;;
10509;SDS011;5303;53.266;10.410;2023-05-10T09:42:53;5.20;;;4.60;;
10509;SDS011;5303;53.266;10.410;2023-05-10T09:45:20;6.23;;;4.83;;
10509;SDS011;5303;53.266;10.410;2023-05-10T09:47:46;7.83;;;5.40;;
10509;SDS011;5303;53.266;10.410;2023-05-10T09:50:11;5.30;;;4.70;;
10509;SDS011;5303;53.266;10.410;2023-05-10T09:52:45;6.70;;;5.33;;
10509;SDS011;5303;53.266;10.410;2023-05-10T09:55:11;6.63;;;5.30;;
10509;SDS011;5303;53.266;10.410;2023-05-10T09:57:37;5.43;;;4.67;;
10509;SDS011;5303;53.266;10.410;2023-05-10T10:00:02;6.40;;;5.47;;
10509;SDS011;5303;53.266;10.410;2023-05-10T10:02:30;6.60;;;5.30;;
10509;SDS011;5303;53.266;10.410;2023-05-10T10:04:56;5.87;;;5.37;;
10509;SDS011;5303;53.266;10.410;2023-05-10T10:07:22;6.63;;;5.73;;
10509;SDS011;5303;53.266;10.410;2023-05-10T10:09:50;7.70;;;6.00;;
10509;SDS011;5303;53.266;10.410;2023-05-10T10:12:15;7.27;;;5.37;;
10509;SDS011;5303;53.266;10.410;2023-05-10T10:14:41;10.07;;;5.90;;
10509;SDS011;5303;53.266;10.410;2023-05-10T10:17:06;6.27;;;5.67;;
10509;SDS011;5303;53.266;10.410;2023-05-10T10:19:33;6.93;;;6.23;;
10509;SDS011;5303;53.266;10.410;2023-05-10T10:21:59;6.83;;;6.10;;
10509;SDS011;5303;53.266;10.410;2023-05-10T10:24:25;6.67;;;5.97;;
10509;SDS011;5303;53.266;10.410;2023-05-10T10:26:50;6.03;;;5.40;;
10509;SDS011;5303;53.266;10.410;2023-05-10T10:29:24;7.03;;;5.70;;
10509;SDS011;5303;53.266;10.410;2023-05-10T10:34:44;6.60;;;6.00;;
10509;SDS011;5303;53.266;10.410;2023-05-10T10:37:10;6.77;;;5.97;;
10509;SDS011;5303;53.266;10.410;2023-05-10T10:39:35;6.67;;;5.90;;
10509;SDS011;5303;53.266;10.410;2023-05-10T10:42:01;7.10;;;6.40;;
10509;SDS011;5303;53.266;10.410;2023-05-10T10:44:37;7.63;;;6.40;;
10509;SDS011;5303;53.266;10.410;2023-05-10T10:52:27;8.27;;;6.83;;
10509;SDS011;5303;53.266;10.410;2023-05-10T10:57:49;9.00;;;6.93;;
10509;SDS011;5303;53.266;10.410;2023-05-10T11:16:09;9.13;;;8.23;;
10509;SDS011;5303;53.266;10.410;2023-05-10T11:18:51;9.13;;;8.10;;
10509;SDS011;5303;53.266;10.410;2023-05-10T11:21:17;9.67;;;8.53;;
10509;SDS011;5303;53.266;10.410;2023-05-10T11:26:08;8.90;;;8.00;;
10509;SDS011;5303;53.266;10.410;2023-05-10T11:28:34;9.73;;;8.37;;
10509;SDS011;5303;53.266;10.410;2023-05-10T11:31:05;10.17;;;8.83;;
10509;SDS011;5303;53.266;10.410;2023-05-10T11:33:31;10.13;;;8.70;;
10509;SDS011;5303;53.266;10.410;2023-05-10T11:36:20;9.83;;;8.73;;
10509;SDS011;5303;53.266;10.410;2023-05-10T11:38:47;10.13;;;7.93;;
10509;SDS011;5303;53.266;10.410;2023-05-10T11:41:13;9.30;;;8.40;;
10509;SDS011;5303;53.266;10.410;2023-05-10T11:43:42;9.60;;;8.60;;
10509;SDS011;5303;53.266;10.410;2023-05-10T11:46:09;9.57;;;8.50;;
10509;SDS011;5303;53.266;10.410;2023-05-10T11:48:36;9.07;;;8.03;;
10509;SDS011;5303;53.266;10.410;2023-05-10T11:51:03;9.97;;;8.67;;
10509;SDS011;5303;53.266;10.410;2023-05-10T11:53:32;9.37;;;8.47;;
10509;SDS011;5303;53.266;10.410;2023-05-10T11:58:33;8.50;;;7.57;;
10509;SDS011;5303;53.266;10.410;2023-05-10T12:00:59;9.03;;;8.13;;
10509;SDS011;5303;53.266;10.410;2023-05-10T12:03:25;8.70;;;7.80;;
10509;SDS011;5303;53.266;10.410;2023-05-10T12:05:54;10.20;;;9.03;;
10509;SDS011;5303;53.266;10.410;2023-05-10T12:08:21;8.93;;;8.07;;
10509;SDS011;5303;53.266;10.410;2023-05-10T12:10:48;10.53;;;9.17;;
10509;SDS011;5303;53.266;10.410;2023-05-10T12:13:14;8.57;;;7.77;;
10509;SDS011;5303;53.266;10.410;2023-05-10T12:15:40;10.20;;;9.10;;
10509;SDS011;5303;53.266;10.410;2023-05-10T12:18:13;8.77;;;7.93;;
10509;SDS011;5303;53.266;10.410;2023-05-10T12:20:40;9.60;;;8.40;;
10509;SDS011;5303;53.266;10.410;2023-05-10T12:23:07;9.13;;;8.27;;
10509;SDS011;5303;53.266;10.410;2023-05-10T12:25:34;10.07;;;9.03;;
10509;SDS011;5303;53.266;10.410;2023-05-10T12:28:04;9.47;;;8.50;;
10509;SDS011;5303;53.266;10.410;2023-05-10T12:30:31;9.27;;;7.90;;
10509;SDS011;5303;53.266;10.410;2023-05-10T12:33:15;10.03;;;8.20;;
10509;SDS011;5303;53.266;10.410;2023-05-10T12:35:44;11.00;;;8.97;;
10509;SDS011;5303;53.266;10.410;2023-05-10T12:39:00;9.27;;;8.20;;
10509;SDS011;5303;53.266;10.410;2023-05-10T12:41:17;9.23;;;8.33;;
10509;SDS011;5303;53.266;10.410;2023-05-10T12:43:44;9.43;;;8.53;;
10509;SDS011;5303;53.266;10.410;2023-05-10T12:46:16;9.80;;;8.80;;
10509;SDS011;5303;53.266;10.410;2023-05-10T12:48:43;8.97;;;8.07;;
10509;SDS011;5303;53.266;10.410;2023-05-10T12:51:09;9.03;;;8.00;;
10509;SDS011;5303;53.266;10.410;2023-05-10T12:53:41;10.27;;;9.27;;
10509;SDS011;5303;53.266;10.410;2023-05-10T12:56:06;8.97;;;8.03;;
10509;SDS011;5303;53.266;10.410;2023-05-10T12:58:32;9.40;;;8.50;;
10509;SDS011;5303;53.266;10.410;2023-05-10T13:00:57;9.10;;;7.37;;
10509;SDS011;5303;53.266;10.410;2023-05-10T13:03:24;8.83;;;7.93;;
10509;SDS011;5303;53.266;10.410;2023-05-10T13:05:49;8.20;;;7.40;;
10509;SDS011;5303;53.266;10.410;2023-05-10T13:08:14;7.90;;;6.67;;
10509;SDS011;5303;53.266;10.410;2023-05-10T13:10:40;7.50;;;6.80;;
10509;SDS011;5303;53.266;10.410;2023-05-10T13:13:05;9.07;;;8.10;;
10509;SDS011;5303;53.266;10.410;2023-05-10T13:15:32;9.17;;;8.27;;
10509;SDS011;5303;53.266;10.410;2023-05-10T13:17:57;8.07;;;7.30;;
10509;SDS011;5303;53.266;10.410;2023-05-10T13:20:23;8.87;;;7.97;;
10509;SDS011;5303;53.266;10.410;2023-05-10T13:22:48;9.00;;;8.17;;
10509;SDS011;5303;53.266;10.410;2023-05-10T13:25:14;9.77;;;7.40;;
10509;SDS011;5303;53.266;10.410;2023-05-10T13:27:40;7.57;;;6.87;;
10509;SDS011;5303;53.266;10.410;2023-05-10T13:30:06;8.37;;;7.57;;
10509;SDS011;5303;53.266;10.410;2023-05-10T13:32:36;8.73;;;7.93;;
10509;SDS011;5303;53.266;10.410;2023-05-10T13:35:01;7.43;;;6.73;;
10509;SDS011;5303;53.266;10.410;2023-05-10T13:37:28;7.23;;;6.27;;
10509;SDS011;5303;53.266;10.410;2023-05-10T13:39:54;6.50;;;5.90;;
10509;SDS011;5303;53.266;10.410;2023-05-10T13:42:20;7.40;;;6.70;;
10509;SDS011;5303;53.266;10.410;2023-05-10T13:44:46;8.00;;;6.83;;
10509;SDS011;5303;53.266;10.410;2023-05-10T13:47:12;6.60;;;6.00;;
10509;SDS011;5303;53.266;10.410;2023-05-10T13:49:37;6.37;;;5.77;;
10509;SDS011;5303;53.266;10.410;2023-05-10T13:52:02;5.60;;;5.10;;
10509;SDS011;5303;53.266;10.410;2023-05-10T13:54:31;6.10;;;5.53;;
10509;SDS011;5303;53.266;10.410;2023-05-10T13:57:00;6.13;;;5.53;;
10509;SDS011;5303;53.266;10.410;2023-05-10T13:59:26;6.23;;;5.63;;
10509;SDS011;5303;53.266;10.410;2023-05-10T14:01:51;6.30;;;5.37;;
10509;SDS011;5303;53.266;10.410;2023-05-10T14:04:16;5.90;;;5.40;;
10509;SDS011;5303;53.266;10.410;2023-05-10T14:06:42;5.63;;;5.13;;
10509;SDS011;5303;53.266;10.410;2023-05-10T14:09:07;5.30;;;4.83;;
10509;SDS011;5303;53.266;10.410;2023-05-10T14:11:32;5.40;;;4.90;;
10509;SDS011;5303;53.266;10.410;2023-05-10T14:13:57;5.20;;;4.77;;
10509;SDS011;5303;53.266;10.410;2023-05-10T14:16:23;4.77;;;4.37;;
10509;SDS011;5303;53.266;10.410;2023-05-10T14:18:48;4.90;;;4.37;;
10509;SDS011;5303;53.266;10.410;2023-05-10T14:21:13;5.33;;;4.83;;
10509;SDS011;5303;53.266;10.410;2023-05-10T14:23:38;5.50;;;5.00;;
10509;SDS011;5303;53.266;10.410;2023-05-10T14:26:04;5.33;;;4.83;;
10509;SDS011;5303;53.266;10.410;2023-05-10T14:28:30;4.70;;;4.30;;
10509;SDS011;5303;53.266;10.410;2023-05-10T14:30:55;5.97;;;4.50;;
10509;SDS011;5303;53.266;10.410;2023-05-10T14:33:21;5.63;;;4.17;;
10509;SDS011;5303;53.266;10.410;2023-05-10T14:35:46;5.63;;;4.30;;
10509;SDS011;5303;53.266;10.410;2023-05-10T14:38:12;4.57;;;4.17;;
10509;SDS011;5303;53.266;10.410;2023-05-10T14:40:37;3.73;;;3.43;;
10509;SDS011;5303;53.266;10.410;2023-05-10T14:43:03;4.43;;;4.03;;
10509;SDS011;5303;53.266;10.410;2023-05-10T14:45:28;4.97;;;4.47;;
10509;SDS011;5303;53.266;10.410;2023-05-10T14:47:53;4.43;;;4.03;;
10509;SDS011;5303;53.266;10.410;2023-05-10T14:50:18;3.80;;;3.50;;
10509;SDS011;5303;53.266;10.410;2023-05-10T14:52:44;5.23;;;3.70;;
10509;SDS011;5303;53.266;10.410;2023-05-10T14:55:09;4.10;;;3.80;;
10509;SDS011;5303;53.266;10.410;2023-05-10T14:57:35;4.43;;;3.70;;
10509;SDS011;5303;53.266;10.410;2023-05-10T15:00:00;4.10;;;3.70;;
10509;SDS011;5303;53.266;10.410;2023-05-10T15:02:26;3.53;;;3.23;;
10509;SDS011;5303;53.266;10.410;2023-05-10T15:04:51;3.50;;;3.20;;
10509;SDS011;5303;53.266;10.410;2023-05-10T15:07:16;3.73;;;3.43;;
10509;SDS011;5303;53.266;10.410;2023-05-10T15:09:43;3.60;;;3.30;;
10509;SDS011;5303;53.266;10.410;2023-05-10T15:12:09;3.47;;;3.17;;
10509;SDS011;5303;53.266;10.410;2023-05-10T15:14:34;3.93;;;3.20;;
10509;SDS011;5303;53.266;10.410;2023-05-10T15:17:01;3.73;;;3.43;;
10509;SDS011;5303;53.266;10.410;2023-05-10T15:19:26;3.93;;;3.17;;
10509;SDS011;5303;53.266;10.410;2023-05-10T15:21:52;3.73;;;3.43;;
10509;SDS011;5303;53.266;10.410;2023-05-10T15:24:17;3.00;;;2.80;;
10509;SDS011;5303;53.266;10.410;2023-05-10T15:26:43;3.03;;;2.73;;
10509;SDS011;5303;53.266;10.410;2023-05-10T15:29:08;3.33;;;3.03;;
10509;SDS011;5303;53.266;10.410;2023-05-10T15:31:34;3.30;;;3.00;;